createdAt,value
2023-04-18T00:04:32.765Z,3.4
2023-04-18T00:07:13.515Z,3.3
2023-04-18T00:09:44.145Z,3.3
2023-04-18T00:12:14.756Z,3.3
2023-04-18T00:14:45.293Z,3.2
2023-04-18T00:17:25.866Z,3.2
2023-04-18T00:19:56.565Z,3.2
2023-04-18T00:22:37.135Z,3.2
2023-04-18T00:25:07.694Z,3.2
2023-04-18T00:27:38.234Z,3.2
2023-04-18T00:30:08.886Z,3.2
2023-04-18T00:32:39.484Z,3.2
2023-04-18T00:35:10.188Z,3.2
2023-04-18T00:37:50.740Z,3.1
2023-04-18T00:40:21.297Z,3.1
2023-04-18T00:45:21.861Z,3.1
2023-04-18T00:47:52.459Z,3.1
2023-04-18T00:50:23.125Z,3.1
2023-04-18T00:53:03.654Z,3.1
2023-04-18T00:55:34.270Z,3.1
2023-04-18T00:58:04.812Z,3.1
2023-04-18T01:00:35.388Z,3.0
2023-04-18T01:03:06.027Z,3.0
2023-04-18T01:05:47.008Z,3.0
2023-04-18T01:08:17.557Z,3.0
2023-04-18T01:10:48.164Z,3.0
2023-04-18T01:13:18.719Z,3.0
2023-04-18T01:15:49.330Z,2.9
2023-04-18T01:18:19.993Z,2.9
2023-04-18T01:21:00.573Z,2.8
2023-04-18T01:26:01.143Z,2.7
2023-04-18T01:28:31.704Z,2.8
2023-04-18T01:31:02.308Z,2.8
2023-04-18T01:33:32.936Z,2.7
2023-04-18T01:36:13.512Z,2.7
2023-04-18T01:38:44.084Z,2.7
2023-04-18T01:41:14.654Z,2.7
2023-04-18T01:43:45.203Z,2.7
2023-04-18T01:46:15.846Z,2.7
2023-04-18T01:48:46.580Z,2.7
2023-04-18T01:51:27.164Z,2.7
2023-04-18T01:53:57.713Z,2.7
2023-04-18T01:56:28.518Z,2.8
2023-04-18T01:58:59.181Z,2.9
2023-04-18T02:01:29.811Z,2.9
2023-04-18T02:06:40.433Z,2.9
2023-04-18T02:09:10.990Z,2.9
2023-04-18T02:11:41.589Z,2.9
2023-04-18T02:14:12.320Z,2.9
2023-04-18T02:16:43.050Z,2.9
2023-04-18T02:19:23.680Z,2.8
2023-04-18T02:21:54.245Z,2.8
2023-04-18T02:24:24.793Z,2.9
2023-04-18T02:26:55.360Z,2.9
2023-04-18T02:29:35.908Z,2.8
2023-04-18T02:32:06.612Z,2.8
2023-04-18T02:34:47.320Z,2.8
2023-04-18T02:37:17.906Z,2.7
2023-04-18T02:39:48.439Z,2.7
2023-04-18T02:42:18.989Z,2.7
2023-04-18T02:47:19.552Z,2.7
2023-04-18T02:49:55.606Z,2.7
2023-04-18T02:52:26.153Z,2.7
2023-04-18T02:54:56.760Z,2.7
2023-04-18T02:57:27.341Z,2.7
2023-04-18T02:59:57.880Z,2.7
2023-04-18T03:02:28.514Z,2.7
2023-04-18T03:05:09.361Z,2.7
2023-04-18T03:07:39.999Z,2.6
2023-04-18T03:10:10.572Z,2.6
2023-04-18T03:12:41.146Z,2.7
2023-04-18T03:15:11.704Z,2.6
2023-04-18T03:17:52.363Z,2.6
2023-04-18T03:20:23.018Z,2.6
2023-04-18T03:22:53.605Z,2.5
2023-04-18T03:27:54.186Z,2.6
2023-04-18T03:30:24.743Z,2.5
2023-04-18T03:33:15.335Z,2.5
2023-04-18T03:35:45.903Z,2.5
2023-04-18T03:38:16.478Z,2.4
2023-04-18T03:40:47.039Z,2.4
2023-04-18T03:43:17.797Z,2.4
2023-04-18T03:45:48.408Z,2.4
2023-04-18T03:48:29.104Z,2.3
2023-04-18T03:50:59.713Z,2.4
2023-04-18T03:53:30.270Z,2.4
2023-04-18T03:56:00.856Z,2.3
2023-04-18T03:58:31.428Z,2.4
2023-04-18T04:01:02.036Z,2.4
2023-04-18T04:03:42.845Z,2.3
2023-04-18T04:08:43.829Z,2.4
2023-04-18T04:11:14.422Z,2.4
2023-04-18T04:13:45.062Z,2.3
2023-04-18T04:16:15.688Z,2.4
2023-04-18T04:18:56.378Z,2.4
2023-04-18T04:21:26.989Z,2.3
2023-04-18T04:23:57.572Z,2.4
2023-04-18T04:26:28.132Z,2.4
2023-04-18T04:28:58.671Z,2.4
2023-04-18T04:31:39.392Z,2.4
2023-04-18T04:34:10.050Z,2.4
2023-04-18T04:36:40.630Z,2.4
2023-04-18T04:39:11.238Z,2.5
2023-04-18T04:41:41.843Z,2.4
2023-04-18T04:44:12.572Z,2.5
2023-04-18T04:49:23.355Z,2.5
2023-04-18T04:51:53.946Z,2.6
2023-04-18T04:54:24.511Z,2.6
2023-04-18T04:56:55.070Z,2.6
2023-04-18T05:02:05.677Z,2.6
2023-04-18T05:04:36.664Z,2.7
2023-04-18T05:07:07.284Z,2.7
2023-04-18T05:09:37.853Z,2.7
2023-04-18T05:12:08.412Z,2.7
2023-04-18T05:14:38.968Z,2.8
2023-04-18T05:17:19.568Z,2.9
2023-04-18T05:19:50.287Z,2.9
2023-04-18T05:22:20.843Z,3.1
2023-04-18T05:24:51.403Z,3.1
2023-04-18T05:30:02.029Z,3.3
2023-04-18T05:32:32.645Z,3.5
2023-04-18T05:35:03.401Z,3.5
2023-04-18T05:37:34.045Z,3.6
2023-04-18T05:40:04.682Z,3.7
2023-04-18T05:42:35.237Z,3.8
2023-04-18T05:45:15.814Z,3.9
2023-04-18T05:47:56.506Z,4.0
2023-04-18T05:50:17.177Z,3.9
2023-04-18T05:52:57.765Z,3.8
2023-04-18T05:55:28.326Z,3.8
2023-04-18T05:57:58.885Z,3.8
2023-04-18T06:00:39.465Z,3.8
2023-04-18T06:03:10.950Z,3.8
2023-04-18T06:05:32.642Z,3.9
2023-04-18T06:10:43.483Z,3.9
2023-04-18T06:13:14.029Z,4.0
2023-04-18T06:15:54.632Z,4.0
2023-04-18T06:18:25.480Z,4.0
2023-04-18T06:20:56.069Z,4.1
2023-04-18T06:23:26.676Z,4.2
2023-04-18T06:25:57.244Z,4.2
2023-04-18T06:28:27.815Z,4.3
2023-04-18T06:31:08.410Z,4.3
2023-04-18T06:33:39.157Z,4.3
2023-04-18T06:36:09.721Z,4.3
2023-04-18T06:38:40.299Z,4.5
2023-04-18T06:41:10.866Z,4.7
2023-04-18T06:44:02.573Z,4.8
2023-04-18T06:51:23.851Z,5.4
2023-04-18T06:53:54.398Z,5.5
2023-04-18T06:56:25.255Z,5.6
2023-04-18T06:59:07.005Z,5.6
2023-04-18T07:01:37.627Z,5.4
2023-04-18T07:04:08.304Z,5.4
2023-04-18T07:06:39.548Z,5.4
2023-04-18T07:09:10.107Z,5.6
2023-04-18T07:11:40.708Z,6.0
2023-04-18T07:14:21.366Z,5.8
2023-04-18T07:16:44.383Z,5.8
2023-04-18T07:19:15.211Z,5.8
2023-04-18T07:21:45.812Z,5.7
2023-04-18T07:24:16.576Z,5.5
2023-04-18T07:26:47.308Z,5.4
2023-04-18T07:32:08.565Z,5.5
2023-04-18T07:34:29.364Z,5.6
2023-04-18T07:36:59.985Z,5.8
2023-04-18T07:39:30.523Z,5.8
2023-04-18T07:42:21.086Z,5.8
2023-04-18T07:44:51.669Z,5.8
2023-04-18T07:47:22.598Z,6.0
2023-04-18T07:49:44.311Z,5.9
2023-04-18T07:52:14.904Z,6.0
2023-04-18T07:54:47.005Z,6.0
2023-04-18T07:57:27.589Z,5.8
2023-04-18T07:59:58.170Z,5.9
2023-04-18T08:02:28.926Z,5.9
2023-04-18T08:05:00.244Z,5.8
2023-04-18T08:07:31.217Z,6.0
2023-04-18T08:12:41.796Z,6.2
2023-04-18T08:15:12.394Z,6.2
2023-04-18T08:17:43.301Z,6.2
2023-04-18T08:20:13.966Z,6.4
2023-04-18T08:23:01.909Z,6.4
2023-04-18T08:25:15.612Z,6.6
2023-04-18T08:27:56.178Z,6.7
2023-04-18T08:30:26.777Z,6.6
2023-04-18T08:32:57.438Z,6.8
2023-04-18T08:35:28.113Z,6.6
2023-04-18T08:37:58.692Z,6.7
2023-04-18T08:40:29.334Z,6.5
2023-04-18T08:43:19.870Z,6.6
2023-04-18T08:45:50.484Z,6.6
2023-04-18T08:48:21.250Z,6.6
2023-04-18T08:53:21.836Z,6.8
2023-04-18T08:58:32.579Z,6.5
2023-04-18T09:01:03.324Z,6.8
2023-04-18T09:03:34.276Z,6.8
2023-04-18T09:06:04.950Z,6.8
2023-04-18T09:08:37.493Z,6.8
2023-04-18T09:11:18.060Z,6.9
2023-04-18T09:13:48.654Z,6.9
2023-04-18T09:16:19.673Z,6.8
2023-04-18T09:18:50.307Z,6.9
2023-04-18T09:21:20.989Z,7.0
2023-04-18T09:23:51.553Z,7.0
2023-04-18T09:26:32.446Z,6.8
2023-04-18T09:29:03.041Z,7.1
2023-04-18T09:34:04.141Z,7.0
2023-04-18T09:36:35.168Z,7.1
2023-04-18T09:39:05.835Z,7.4
2023-04-18T09:41:46.527Z,7.9
2023-04-18T09:44:17.369Z,8.0
2023-04-18T09:46:48.238Z,8.4
2023-04-18T09:49:18.815Z,8.5
2023-04-18T09:51:49.369Z,8.5
2023-04-18T09:54:19.988Z,8.2
2023-04-18T09:57:00.591Z,8.2
2023-04-18T09:59:31.222Z,8.1
2023-04-18T10:02:01.971Z,8.1
2023-04-18T10:04:32.880Z,8.2
2023-04-18T10:07:03.982Z,8.0
2023-04-18T10:09:44.557Z,8.0
2023-04-18T10:14:45.145Z,8.2
2023-04-18T10:17:15.738Z,8.4
2023-04-18T10:19:40.274Z,8.3
2023-04-18T10:22:10.827Z,8.1
2023-04-18T10:24:51.427Z,8.1
2023-04-18T10:27:21.994Z,8.5
2023-04-18T10:29:52.541Z,8.4
2023-04-18T10:32:33.136Z,8.4
2023-04-18T10:35:03.844Z,8.2
2023-04-18T10:37:34.428Z,8.0
2023-04-18T10:40:14.995Z,8.0
2023-04-18T10:42:45.629Z,8.1
2023-04-18T10:45:16.225Z,8.1
2023-04-18T10:47:46.972Z,8.1
2023-04-18T10:50:17.694Z,8.0
2023-04-18T10:55:28.381Z,8.0
2023-04-18T10:57:58.948Z,8.0
2023-04-18T11:00:29.512Z,8.1
2023-04-18T11:03:00.507Z,8.2
2023-04-18T11:05:31.647Z,8.0
2023-04-18T11:08:03.081Z,8.0
2023-04-18T11:10:43.659Z,8.1
2023-04-18T11:13:14.237Z,8.2
2023-04-18T11:15:44.844Z,8.2
2023-04-18T11:18:15.559Z,8.3
2023-04-18T11:20:46.171Z,8.6
2023-04-18T11:23:26.780Z,8.5
2023-04-18T11:25:57.361Z,8.5
2023-04-18T11:28:27.929Z,8.4
2023-04-18T11:30:58.523Z,8.4
2023-04-18T11:35:59.124Z,8.3
2023-04-18T11:38:39.701Z,8.3
2023-04-18T11:41:10.330Z,8.3
2023-04-18T11:43:40.905Z,8.4
2023-04-18T11:46:11.498Z,8.4
2023-04-18T11:48:42.262Z,8.6
2023-04-18T11:51:12.821Z,8.8
2023-04-18T11:53:53.381Z,9.0
2023-04-18T11:56:24.335Z,8.8
2023-04-18T11:58:57.110Z,8.8
2023-04-18T12:01:27.701Z,8.7
2023-04-18T12:03:58.716Z,8.8
2023-04-18T12:06:30.423Z,8.7
2023-04-18T12:09:11.053Z,8.8
2023-04-18T12:11:41.634Z,8.8
2023-04-18T12:16:42.237Z,9.0
2023-04-18T12:19:12.824Z,9.0
2023-04-18T12:21:53.389Z,9.1
2023-04-18T12:24:24.522Z,9.2
2023-04-18T12:26:55.143Z,9.4
2023-04-18T12:29:25.733Z,9.5
2023-04-18T12:31:56.347Z,9.6
2023-04-18T12:34:26.952Z,9.8
2023-04-18T12:37:07.655Z,10.1
2023-04-18T12:39:38.217Z,10.2
2023-04-18T12:42:08.791Z,9.9
2023-04-18T12:44:39.332Z,9.8
2023-04-18T12:47:10.921Z,9.6
2023-04-18T12:49:41.579Z,9.6
2023-04-18T12:52:22.154Z,9.6
2023-04-18T12:57:22.734Z,9.6
2023-04-18T12:59:53.319Z,9.8
2023-04-18T13:02:24.418Z,10.2
2023-04-18T13:04:55.376Z,10.7
2023-04-18T13:07:36.008Z,10.8
2023-04-18T13:10:08.763Z,10.7
2023-04-18T13:12:39.363Z,10.6
2023-04-18T13:15:09.975Z,10.6
2023-04-18T13:17:40.561Z,10.5
2023-04-18T13:20:11.238Z,10.4
2023-04-18T13:22:51.795Z,10.3
2023-04-18T13:25:22.576Z,10.4
2023-04-18T13:27:53.144Z,10.5
2023-04-18T13:30:23.711Z,10.8
2023-04-18T13:32:54.292Z,10.8
2023-04-18T13:38:04.926Z,10.2
2023-04-18T13:40:35.492Z,10.0
2023-04-18T13:43:01.496Z,10.0
2023-04-18T13:45:42.081Z,10.0
2023-04-18T13:48:14.428Z,9.9
2023-04-18T13:50:45.642Z,9.8
2023-04-18T13:53:16.196Z,9.7
2023-04-18T13:55:46.765Z,9.6
2023-04-18T13:58:17.315Z,9.4
2023-04-18T14:00:47.905Z,9.4
2023-04-18T14:03:18.726Z,9.3
2023-04-18T14:06:03.175Z,9.3
2023-04-18T14:08:33.708Z,9.3
2023-04-18T14:11:04.307Z,9.4
2023-04-18T14:13:34.914Z,9.4
2023-04-18T14:18:35.487Z,9.5
2023-04-18T14:21:16.084Z,9.7
2023-04-18T14:23:46.666Z,9.8
2023-04-18T14:26:17.299Z,9.8
2023-04-18T14:28:47.874Z,9.9
2023-04-18T14:31:18.547Z,9.8
2023-04-18T14:33:49.314Z,9.9
2023-04-18T14:36:30.086Z,9.8
2023-04-18T14:39:00.682Z,9.6
2023-04-18T14:41:31.508Z,9.6
2023-04-18T14:44:02.082Z,9.5
2023-04-18T14:46:32.780Z,9.4
2023-04-18T14:49:03.488Z,9.2
2023-04-18T14:51:44.327Z,9.2
2023-04-18T14:54:14.983Z,9.1
2023-04-18T14:59:16.547Z,9.0
2023-04-18T15:01:47.454Z,9.0
2023-04-18T15:04:28.411Z,9.0
2023-04-18T15:06:59.309Z,9.0
2023-04-18T15:09:29.903Z,9.1
2023-04-18T15:12:00.523Z,9.1
2023-04-18T15:14:32.310Z,9.0
2023-04-18T15:17:03.371Z,9.0
2023-04-18T15:19:43.959Z,9.1
2023-04-18T15:22:14.593Z,9.1
2023-04-18T15:24:45.197Z,9.1
2023-04-18T15:27:15.753Z,9.1
2023-04-18T15:29:46.345Z,9.1
2023-04-18T15:32:17.166Z,9.0
2023-04-18T15:34:57.903Z,8.9
2023-04-18T15:39:58.481Z,8.8
2023-04-18T15:42:29.065Z,8.8
2023-04-18T15:44:59.698Z,8.8
2023-04-18T15:47:30.365Z,8.8
2023-04-18T15:50:11.100Z,8.8
2023-04-18T15:52:43.969Z,8.9
2023-04-18T15:55:14.642Z,8.9
2023-04-18T15:57:45.186Z,9.0
2023-04-18T16:00:15.776Z,8.8
2023-04-18T16:02:56.418Z,8.7
2023-04-18T16:05:27.462Z,8.7
2023-04-18T16:07:58.023Z,8.5
2023-04-18T16:10:28.596Z,8.4
2023-04-18T16:12:59.295Z,8.4
2023-04-18T16:15:29.907Z,8.3
2023-04-18T16:20:40.676Z,8.2
2023-04-18T16:23:11.265Z,8.2
2023-04-18T16:25:41.831Z,8.1
2023-04-18T16:28:12.371Z,8.1
2023-04-18T16:30:54.900Z,8.0
2023-04-18T16:33:26.392Z,8.0
2023-04-18T16:35:57.149Z,7.9
2023-04-18T16:38:27.733Z,7.9
2023-04-18T16:40:58.290Z,7.9
2023-04-18T16:43:28.858Z,7.8
2023-04-18T16:45:59.416Z,7.7
2023-04-18T16:48:40.148Z,7.7
2023-04-18T16:51:12.911Z,7.7
2023-04-18T16:53:43.457Z,7.7
2023-04-18T16:56:14.007Z,7.6
2023-04-18T17:01:14.706Z,7.6
2023-04-18T17:03:55.352Z,7.5
2023-04-18T17:06:26.416Z,7.4
2023-04-18T17:08:57.867Z,7.4
2023-04-18T17:11:29.320Z,7.4
2023-04-18T17:14:00.235Z,7.3
2023-04-18T17:16:40.964Z,7.2
2023-04-18T17:19:14.251Z,7.2
2023-04-18T17:21:45.079Z,7.2
2023-04-18T17:24:15.727Z,7.1
2023-04-18T17:26:46.321Z,7.1
2023-04-18T17:29:17.062Z,7.0
2023-04-18T17:31:57.717Z,7.0
2023-04-18T17:34:28.440Z,6.9
2023-04-18T17:36:58.999Z,6.9
2023-04-18T17:41:59.557Z,6.9
2023-04-18T17:44:30.142Z,6.8
2023-04-18T17:47:10.787Z,6.8
2023-04-18T17:49:41.334Z,6.8
2023-04-18T17:52:11.879Z,6.8
2023-04-18T17:54:42.477Z,6.8
2023-04-18T17:57:13.079Z,6.8
2023-04-18T17:59:43.637Z,6.7
2023-04-18T18:02:24.354Z,6.6
2023-04-18T18:04:55.319Z,6.6
2023-04-18T18:07:26.065Z,6.6
2023-04-18T18:09:58.017Z,6.6
2023-04-18T18:12:28.572Z,6.6
2023-04-18T18:14:59.188Z,6.6
2023-04-18T18:17:39.767Z,6.5
2023-04-18T18:22:40.590Z,6.5
2023-04-18T18:25:11.211Z,6.4
2023-04-18T18:27:41.825Z,6.4
2023-04-18T18:30:22.430Z,6.4
2023-04-18T18:32:53.016Z,6.4
2023-04-18T18:35:23.670Z,6.4
2023-04-18T18:37:54.247Z,6.4
2023-04-18T18:40:24.823Z,6.4
2023-04-18T18:42:55.361Z,6.3
2023-04-18T18:45:35.947Z,6.3
2023-04-18T18:48:06.608Z,6.3
2023-04-18T18:50:37.191Z,6.3
2023-04-18T18:53:07.747Z,6.2
2023-04-18T18:55:38.329Z,6.2
2023-04-18T18:58:08.918Z,6.2
2023-04-18T19:03:19.674Z,6.1
2023-04-18T19:05:50.755Z,6.2
2023-04-18T19:08:21.327Z,6.1
2023-04-18T19:10:51.890Z,6.1
2023-04-18T19:13:32.432Z,6.0
2023-04-18T19:16:13.128Z,6.1
2023-04-18T19:18:43.879Z,6.0
2023-04-18T19:21:14.443Z,6.0
2023-04-18T19:23:45.033Z,6.0
2023-04-18T19:26:15.636Z,6.0
2023-04-18T19:28:56.248Z,6.0
2023-04-18T19:31:27.001Z,6.0
2023-04-18T19:33:57.701Z,6.0
2023-04-18T19:36:28.268Z,6.0
2023-04-18T19:38:58.846Z,6.0
2023-04-18T19:44:09.430Z,6.0
2023-04-18T19:46:40.065Z,5.9
2023-04-18T19:49:10.696Z,5.9
2023-04-18T19:51:41.258Z,5.9
2023-04-18T19:54:11.839Z,5.8
2023-04-18T19:56:42.682Z,5.8
2023-04-18T19:59:23.227Z,5.8
2023-04-18T20:01:53.906Z,5.8
2023-04-18T20:04:27.035Z,5.8
2023-04-18T20:06:58.361Z,5.7
2023-04-18T20:09:28.939Z,5.8
2023-04-18T20:11:59.505Z,5.7
2023-04-18T20:14:40.087Z,5.7
2023-04-18T20:17:10.653Z,5.7
2023-04-18T20:19:41.276Z,5.7
2023-04-18T20:27:21.924Z,5.7
2023-04-18T20:29:52.514Z,5.6
2023-04-18T20:32:23.239Z,5.6
2023-04-18T20:34:53.962Z,5.6
2023-04-18T20:39:54.566Z,5.6
2023-04-18T20:42:35.149Z,5.6
2023-04-18T20:45:05.728Z,5.6
2023-04-18T20:47:36.307Z,5.6
2023-04-18T20:50:07.100Z,5.6
2023-04-18T20:52:37.649Z,5.6
2023-04-18T20:55:08.217Z,5.6
2023-04-18T20:57:48.848Z,5.6
2023-04-18T21:00:19.412Z,5.6
2023-04-18T21:05:19.991Z,5.6
2023-04-18T21:07:50.558Z,5.6
2023-04-18T21:10:21.120Z,5.5
2023-04-18T21:13:01.661Z,5.5
2023-04-18T21:15:32.226Z,5.5
2023-04-18T21:18:03.072Z,5.5
2023-04-18T21:20:33.749Z,5.5
2023-04-18T21:23:04.318Z,5.5
2023-04-18T21:25:34.876Z,5.4
2023-04-18T21:28:15.430Z,5.4
2023-04-18T21:30:45.999Z,5.4
2023-04-18T21:33:16.624Z,5.4
2023-04-18T21:35:47.250Z,5.4
2023-04-18T21:38:17.780Z,5.3
2023-04-18T21:40:58.321Z,5.3
2023-04-18T21:45:58.965Z,5.3
2023-04-18T21:48:29.714Z,5.3
2023-04-18T21:51:10.289Z,5.3
2023-04-18T21:53:40.838Z,5.3
2023-04-18T21:56:21.419Z,5.2
2023-04-18T21:58:51.970Z,5.2
2023-04-18T22:01:22.541Z,5.1
2023-04-18T22:03:53.539Z,4.9
2023-04-18T22:06:15.357Z,4.9
2023-04-18T22:08:45.949Z,4.7
2023-04-18T22:11:36.518Z,4.7
2023-04-18T22:13:57.332Z,4.5
2023-04-18T22:16:37.982Z,4.6
2023-04-18T22:19:08.680Z,4.6
2023-04-18T22:21:39.255Z,4.6
2023-04-18T22:26:49.879Z,4.6
2023-04-18T22:29:20.498Z,4.7
2023-04-18T22:31:51.088Z,4.6
2023-04-18T22:34:21.649Z,4.6
2023-04-18T22:36:52.219Z,4.6
2023-04-18T22:39:22.830Z,4.6
2023-04-18T22:42:03.378Z,4.5
2023-04-18T22:44:33.966Z,4.4
2023-04-18T22:47:04.558Z,4.4
2023-04-18T22:49:35.136Z,4.4
2023-04-18T22:52:05.726Z,4.4
2023-04-18T22:54:46.331Z,4.4
2023-04-18T22:57:16.925Z,4.3
2023-04-18T22:59:47.522Z,4.3
2023-04-18T23:02:18.145Z,4.3
2023-04-18T23:07:19.235Z,4.5
2023-04-18T23:09:59.824Z,4.5
2023-04-18T23:12:30.438Z,4.6
2023-04-18T23:15:01.004Z,4.6
2023-04-18T23:17:31.630Z,4.5
2023-04-18T23:20:02.383Z,4.5
2023-04-18T23:22:32.993Z,4.5
2023-04-18T23:25:13.593Z,4.6
2023-04-18T23:27:44.155Z,4.6
2023-04-18T23:30:14.745Z,4.6
2023-04-18T23:32:45.358Z,4.6
2023-04-18T23:37:46.149Z,4.7
2023-04-18T23:42:56.722Z,4.7
2023-04-18T23:47:57.314Z,4.8
2023-04-18T23:50:27.986Z,4.8
2023-04-18T23:53:08.540Z,4.8
2023-04-18T23:55:39.100Z,4.8
2023-04-18T23:58:11.460Z,4.8
